Time;durP1;ratioP1;P1;durP2;ratioP2;P2;SDS_P1;SDS_P2;PMS_P1;PMS_P2;Temp;Humidity;BMP_temperature;BMP_pressure;BME280_temperature;BME280_humidity;BME280_pressure;Samples;Min_cycle;Max_cycle;Signal;HPM_P1;HPM_P2
2023/10/22 00:01:45;;;;;;;23.13;21.92;;;;;;;;;;5063761;28;20098;-64
2023/10/22 00:04:10;;;;;;;22.23;21.02;;;;;;;;;;5065420;28;20029;-63
2023/10/22 00:06:36;;;;;;;25.02;23.55;;;;;;;;;;5064579;28;20093;-64
2023/10/22 00:09:01;;;;;;;24.35;23.05;;;;;;;;;;5067182;28;20073;-64
2023/10/22 00:11:26;;;;;;;26.48;24.98;;;;;;;;;;5063393;28;20401;-64
2023/10/22 00:13:52;;;;;;;24.08;22.77;;;;;;;;;;5067622;28;20123;-64
2023/10/22 00:16:17;;;;;;;25.85;24.45;;;;;;;;;;5065199;28;20044;-64
2023/10/22 00:18:43;;;;;;;26.85;25.42;;;;;;;;;;5063550;28;20032;-64
2023/10/22 00:21:08;;;;;;;27.27;25.77;;;;;;;;;;5068167;28;20532;-64
2023/10/22 00:23:35;;;;;;;26.48;25.08;;;;;;;;;;5068110;28;20125;-64
2023/10/22 00:26:00;;;;;;;28.77;27.23;;;;;;;;;;5064366;28;20056;-64
2023/10/22 00:28:26;;;;;;;28.00;26.40;;;;;;;;;;5065524;28;20059;-64
2023/10/22 00:30:51;;;;;;;25.92;24.52;;;;;;;;;;5064854;28;20417;-63
2023/10/22 00:33:17;;;;;;;25.90;24.50;;;;;;;;;;5066543;28;20415;-63
2023/10/22 00:35:42;;;;;;;25.77;24.40;;;;;;;;;;5062296;28;20040;-64
2023/10/22 00:38:08;;;;;;;27.33;25.88;;;;;;;;;;5064456;28;20067;-62
2023/10/22 00:40:33;;;;;;;26.00;24.60;;;;;;;;;;5064291;28;20390;-62
2023/10/22 00:43:03;;;;;;;26.95;25.52;;;;;;;;;;5063720;28;20037;-63
2023/10/22 00:45:30;;;;;;;25.95;24.45;;;;;;;;;;5064738;28;20033;-63
2023/10/22 00:47:56;;;;;;;27.10;25.67;;;;;;;;;;5067528;28;20452;-63
2023/10/22 00:50:21;;;;;;;26.83;25.42;;;;;;;;;;5062308;28;20037;-63
2023/10/22 00:52:46;;;;;;;28.42;26.92;;;;;;;;;;5064808;28;20131;-62
2023/10/22 00:55:13;;;;;;;28.02;26.52;;;;;;;;;;5066430;28;20519;-63
2023/10/22 00:57:39;;;;;;;28.58;26.83;;;;;;;;;;5061945;28;20022;-63
2023/10/22 01:00:06;;;;;;;29.42;27.80;;;;;;;;;;5068802;28;20473;-63
2023/10/22 01:02:32;;;;;;;28.13;26.63;;;;;;;;;;5063105;28;20429;-62
2023/10/22 01:04:57;;;;;;;29.73;28.13;;;;;;;;;;5066856;28;20043;-63
2023/10/22 01:07:22;;;;;;;29.42;27.92;;;;;;;;;;5062785;28;20036;-63
2023/10/22 01:09:48;;;;;;;29.98;28.38;;;;;;;;;;5066456;28;20041;-63
2023/10/22 01:12:13;;;;;;;29.08;27.40;;;;;;;;;;5068069;28;21329;-63
2023/10/22 01:14:38;;;;;;;31.10;29.30;;;;;;;;;;5061214;28;20487;-63
2023/10/22 01:17:04;;;;;;;31.63;29.95;;;;;;;;;;5066128;28;20032;-65
2023/10/22 01:19:29;;;;;;;33.30;31.60;;;;;;;;;;5066858;28;20331;-65
2023/10/22 01:21:54;;;;;;;34.72;32.72;;;;;;;;;;5063023;28;20071;-63
2023/10/22 01:24:20;;;;;;;34.53;32.72;;;;;;;;;;5063996;28;20028;-63
2023/10/22 01:26:46;;;;;;;35.28;33.47;;;;;;;;;;5064839;28;20530;-63
2023/10/22 01:29:11;;;;;;;34.92;33.13;;;;;;;;;;5065312;28;20346;-63
2023/10/22 01:31:37;;;;;;;35.72;33.92;;;;;;;;;;5065786;28;20063;-63
2023/10/22 01:34:03;;;;;;;39.45;37.35;;;;;;;;;;5066638;28;20036;-64
2023/10/22 01:36:29;;;;;;;33.95;32.17;;;;;;;;;;5065582;28;20025;-63
2023/10/22 01:38:54;;;;;;;37.13;35.22;;;;;;;;;;5065314;28;20025;-64
2023/10/22 01:41:20;;;;;;;35.80;33.92;;;;;;;;;;5066244;28;20180;-63
2023/10/22 01:43:45;;;;;;;35.95;34.08;;;;;;;;;;5064974;28;20116;-63
2023/10/22 01:46:10;;;;;;;37.03;35.13;;;;;;;;;;5063975;28;20068;-63
2023/10/22 01:48:37;;;;;;;36.97;34.95;;;;;;;;;;5063318;28;20024;-63
2023/10/22 01:51:03;;;;;;;37.17;35.28;;;;;;;;;;5066944;28;20450;-63
2023/10/22 01:53:28;;;;;;;38.10;36.10;;;;;;;;;;5065441;28;20078;-63
2023/10/22 01:55:53;;;;;;;35.45;33.65;;;;;;;;;;5067361;28;20124;-63
2023/10/22 01:58:19;;;;;;;37.03;35.03;;;;;;;;;;5064443;28;20146;-63
2023/10/22 02:00:44;;;;;;;37.17;35.28;;;;;;;;;;5062877;28;20043;-63
2023/10/22 02:03:09;;;;;;;37.53;35.53;;;;;;;;;;5063486;28;20042;-64
2023/10/22 02:05:35;;;;;;;39.83;37.72;;;;;;;;;;5065783;28;20020;-63
2023/10/22 02:08:04;;;;;;;38.63;36.63;;;;;;;;;;5063624;28;20021;-63
2023/10/22 02:10:31;;;;;;;40.35;38.25;;;;;;;;;;5063472;28;20513;-63
2023/10/22 02:12:57;;;;;;;39.45;37.45;;;;;;;;;;5067739;28;20126;-63
2023/10/22 02:15:25;;;;;;;37.47;35.58;;;;;;;;;;5068887;28;20071;-63
2023/10/22 02:17:50;;;;;;;37.28;35.35;;;;;;;;;;5064399;28;20032;-63
2023/10/22 02:20:16;;;;;;;38.53;36.55;;;;;;;;;;5063289;28;20393;-64
2023/10/22 02:22:41;;;;;;;40.50;38.42;;;;;;;;;;5064529;28;20050;-63
2023/10/22 02:25:07;;;;;;;40.97;37.92;;;;;;;;;;5068069;28;20025;-64
2023/10/22 02:27:33;;;;;;;39.33;37.33;;;;;;;;;;5064254;28;20067;-63
2023/10/22 02:29:58;;;;;;;36.70;34.80;;;;;;;;;;5066480;28;20143;-64
2023/10/22 02:32:24;;;;;;;37.03;35.13;;;;;;;;;;5066299;28;20063;-64
2023/10/22 02:34:52;;;;;;;37.15;35.25;;;;;;;;;;5064750;28;20029;-64
2023/10/22 02:37:18;;;;;;;35.90;34.05;;;;;;;;;;5064623;28;20064;-64
2023/10/22 02:39:43;;;;;;;36.30;34.20;;;;;;;;;;5065759;28;20044;-64
2023/10/22 02:42:08;;;;;;;34.63;32.70;;;;;;;;;;5063701;28;20370;-63
2023/10/22 02:44:33;;;;;;;35.67;33.78;;;;;;;;;;5067458;28;20338;-64
2023/10/22 02:46:59;;;;;;;36.10;34.00;;;;;;;;;;5067168;28;21199;-64
2023/10/22 02:49:25;;;;;;;37.75;35.75;;;;;;;;;;5068189;28;20025;-65
2023/10/22 02:51:50;;;;;;;35.83;34.00;;;;;;;;;;5067549;28;20028;-65
2023/10/22 02:54:16;;;;;;;36.80;34.88;;;;;;;;;;5064679;28;20071;-66
2023/10/22 02:56:42;;;;;;;36.40;34.50;;;;;;;;;;5062941;28;20085;-63
2023/10/22 02:59:08;;;;;;;36.80;34.88;;;;;;;;;;5063288;28;20037;-66
2023/10/22 03:01:33;;;;;;;36.17;34.33;;;;;;;;;;5063656;28;20043;-65
2023/10/22 03:03:58;;;;;;;36.63;34.72;;;;;;;;;;5060348;28;20064;-66
2023/10/22 03:06:23;;;;;;;34.35;32.55;;;;;;;;;;5065347;28;20033;-65
2023/10/22 03:08:49;;;;;;;37.53;35.63;;;;;;;;;;5062881;28;20033;-65
2023/10/22 03:11:16;;;;;;;35.67;33.78;;;;;;;;;;5065936;28;20029;-66
2023/10/22 03:13:41;;;;;;;36.80;34.38;;;;;;;;;;5066572;28;20029;-65
2023/10/22 03:16:11;;;;;;;35.00;33.20;;;;;;;;;;5070309;28;20114;-65
2023/10/22 03:18:37;;;;;;;35.92;34.08;;;;;;;;;;5069584;28;20501;-65
2023/10/22 03:21:19;;;;;;;33.15;31.45;;;;;;;;;;5066447;28;21202;-65
2023/10/22 03:23:45;;;;;;;32.70;31.00;;;;;;;;;;5066454;28;20385;-65
2023/10/22 03:26:14;;;;;;;36.88;34.78;;;;;;;;;;5067042;28;20033;-65
2023/10/22 03:28:40;;;;;;;35.88;34.05;;;;;;;;;;5067186;28;20046;-65
2023/10/22 03:31:05;;;;;;;35.95;34.08;;;;;;;;;;5068212;28;20647;-65
2023/10/22 03:33:31;;;;;;;37.75;35.85;;;;;;;;;;5068342;28;20513;-65
2023/10/22 03:35:58;;;;;;;37.97;35.92;;;;;;;;;;5067253;28;20119;-65
2023/10/22 03:38:24;;;;;;;39.08;36.97;;;;;;;;;;5066786;28;20062;-65
2023/10/22 03:40:59;;;;;;;39.10;36.90;;;;;;;;;;5065518;28;20112;-65
2023/10/22 03:43:26;;;;;;;38.75;36.65;;;;;;;;;;5070471;28;20112;-65
2023/10/22 03:45:52;;;;;;;37.20;35.30;;;;;;;;;;5067578;28;20033;-65
2023/10/22 03:48:17;;;;;;;39.13;37.08;;;;;;;;;;5070208;28;20477;-65
2023/10/22 03:50:45;;;;;;;42.10;39.97;;;;;;;;;;5066762;28;20041;-65
2023/10/22 03:53:11;;;;;;;41.58;39.30;;;;;;;;;;5067866;28;20030;-64
2023/10/22 03:55:36;;;;;;;39.90;37.80;;;;;;;;;;5068095;28;20668;-64
2023/10/22 03:58:02;;;;;;;40.38;38.22;;;;;;;;;;5068887;28;20033;-65
2023/10/22 04:00:27;;;;;;;43.30;40.88;;;;;;;;;;5066300;28;20040;-66
2023/10/22 04:02:53;;;;;;;38.78;36.78;;;;;;;;;;5062923;28;20032;-65
2023/10/22 04:05:18;;;;;;;40.67;38.58;;;;;;;;;;5061928;28;20037;-64
2023/10/22 04:07:43;;;;;;;43.78;41.58;;;;;;;;;;5066001;28;20036;-65
2023/10/22 04:10:12;;;;;;;40.97;38.88;;;;;;;;;;5065689;28;20473;-65
2023/10/22 04:12:37;;;;;;;42.70;40.50;;;;;;;;;;5064739;28;20043;-65
2023/10/22 04:15:03;;;;;;;40.70;38.50;;;;;;;;;;5068933;28;20025;-65
2023/10/22 04:17:29;;;;;;;40.05;37.95;;;;;;;;;;5067138;28;20032;-64
2023/10/22 04:19:55;;;;;;;40.90;38.78;;;;;;;;;;5063424;28;20036;-64
2023/10/22 04:22:20;;;;;;;41.83;39.72;;;;;;;;;;5067414;28;20045;-65
2023/10/22 04:24:46;;;;;;;39.60;37.60;;;;;;;;;;5069245;28;20040;-65
2023/10/22 04:27:12;;;;;;;42.85;40.67;;;;;;;;;;5068496;28;20042;-64
2023/10/22 04:29:38;;;;;;;40.85;38.72;;;;;;;;;;5064197;28;20040;-64
2023/10/22 04:32:04;;;;;;;43.08;40.88;;;;;;;;;;5064738;28;20047;-65
2023/10/22 04:34:32;;;;;;;45.42;43.10;;;;;;;;;;5064936;28;20032;-64
2023/10/22 04:36:57;;;;;;;44.65;42.38;;;;;;;;;;5063350;28;20412;-65
2023/10/22 04:39:24;;;;;;;44.08;41.85;;;;;;;;;;5065742;28;20104;-64
2023/10/22 04:41:50;;;;;;;43.05;40.88;;;;;;;;;;5067469;28;20119;-65
2023/10/22 04:44:15;;;;;;;46.70;44.30;;;;;;;;;;5067757;28;20044;-65
2023/10/22 04:46:41;;;;;;;44.33;42.03;;;;;;;;;;5067363;28;20109;-63
2023/10/22 04:49:06;;;;;;;44.92;42.65;;;;;;;;;;5066191;28;20508;-64
2023/10/22 04:51:32;;;;;;;46.50;44.10;;;;;;;;;;5066537;28;20452;-64
2023/10/22 04:53:57;;;;;;;46.95;42.90;;;;;;;;;;5065874;28;20520;-64
2023/10/22 04:56:23;;;;;;;44.40;42.10;;;;;;;;;;5065708;28;20393;-64
2023/10/22 04:58:48;;;;;;;45.53;43.15;;;;;;;;;;5064987;28;20104;-64
2023/10/22 05:01:14;;;;;;;47.22;44.78;;;;;;;;;;5064543;28;20481;-64
2023/10/22 05:03:39;;;;;;;46.13;43.78;;;;;;;;;;5069669;28;20128;-64
2023/10/22 05:06:06;;;;;;;48.10;45.63;;;;;;;;;;5065492;28;20056;-64
2023/10/22 05:08:34;;;;;;;45.60;43.22;;;;;;;;;;5053021;28;20700;-64
2023/10/22 05:11:04;;;;;;;45.58;43.25;;;;;;;;;;5067105;28;20040;-64
2023/10/22 05:13:30;;;;;;;44.85;42.58;;;;;;;;;;5064565;28;20029;-64
2023/10/22 05:15:56;;;;;;;45.20;42.88;;;;;;;;;;5065004;28;20064;-64
2023/10/22 05:18:22;;;;;;;47.42;44.92;;;;;;;;;;5065116;28;20064;-64
2023/10/22 05:20:48;;;;;;;44.92;42.65;;;;;;;;;;5063022;28;20145;-64
2023/10/22 05:23:14;;;;;;;48.42;45.97;;;;;;;;;;5064876;28;20043;-64
2023/10/22 05:25:41;;;;;;;46.10;43.75;;;;;;;;;;5068005;28;20679;-63
2023/10/22 05:28:07;;;;;;;47.53;44.95;;;;;;;;;;5063750;28;20041;-64
2023/10/22 05:30:32;;;;;;;43.85;41.60;;;;;;;;;;5066121;28;20030;-64
2023/10/22 05:32:58;;;;;;;44.55;42.30;;;;;;;;;;5064321;28;20131;-64
2023/10/22 05:35:23;;;;;;;46.45;44.10;;;;;;;;;;5065284;28;20044;-64
2023/10/22 05:37:49;;;;;;;47.83;45.20;;;;;;;;;;5064116;28;20032;-64
2023/10/22 05:40:15;;;;;;;45.20;42.88;;;;;;;;;;5065351;28;20512;-65
2023/10/22 05:42:41;;;;;;;45.80;43.47;;;;;;;;;;5068488;28;20020;-65
2023/10/22 05:45:07;;;;;;;45.72;43.38;;;;;;;;;;5060937;28;20028;-64
2023/10/22 05:47:33;;;;;;;44.75;42.47;;;;;;;;;;5066097;28;20029;-65
2023/10/22 05:49:59;;;;;;;44.72;42.42;;;;;;;;;;5065592;28;20603;-66
2023/10/22 05:52:26;;;;;;;45.10;42.75;;;;;;;;;;5065513;28;20052;-65
2023/10/22 05:54:52;;;;;;;43.83;41.60;;;;;;;;;;5063956;28;20048;-65
2023/10/22 05:57:20;;;;;;;47.33;44.83;;;;;;;;;;5065135;28;20454;-65
2023/10/22 05:59:46;;;;;;;44.80;42.50;;;;;;;;;;5065507;28;20028;-66
2023/10/22 06:02:12;;;;;;;43.17;40.97;;;;;;;;;;5065090;28;20040;-65
2023/10/22 06:04:37;;;;;;;43.83;41.63;;;;;;;;;;5066048;28;20366;-66
2023/10/22 06:07:03;;;;;;;44.13;41.83;;;;;;;;;;5062768;28;20036;-64
2023/10/22 06:09:28;;;;;;;49.45;46.97;;;;;;;;;;5064793;28;20030;-65
2023/10/22 06:11:53;;;;;;;43.85;41.63;;;;;;;;;;5063693;28;21087;-66
2023/10/22 06:14:19;;;;;;;48.17;45.70;;;;;;;;;;5066085;28;20119;-65
2023/10/22 06:16:44;;;;;;;44.63;42.35;;;;;;;;;;5062453;28;20101;-65
2023/10/22 06:19:10;;;;;;;42.88;40.67;;;;;;;;;;5061745;28;20040;-67
2023/10/22 06:21:35;;;;;;;41.17;39.00;;;;;;;;;;5070928;28;20033;-67
2023/10/22 06:24:01;;;;;;;43.83;41.58;;;;;;;;;;5064693;28;20106;-65
2023/10/22 06:26:26;;;;;;;40.55;38.45;;;;;;;;;;5066367;28;20114;-66
2023/10/22 06:28:52;;;;;;;40.47;38.42;;;;;;;;;;5066810;28;20033;-64
2023/10/22 06:31:17;;;;;;;41.95;39.85;;;;;;;;;;5065874;28;20028;-64
2023/10/22 06:33:43;;;;;;;43.72;41.53;;;;;;;;;;5068332;28;20044;-64
2023/10/22 06:36:18;;;;;;;44.30;42.00;;;;;;;;;;5061389;28;20032;-66
2023/10/22 06:38:46;;;;;;;45.28;42.97;;;;;;;;;;5062642;28;20480;-64
2023/10/22 06:41:13;;;;;;;44.35;41.95;;;;;;;;;;5062743;28;20063;-66
2023/10/22 06:43:39;;;;;;;45.97;43.67;;;;;;;;;;5066673;28;20032;-66
2023/10/22 06:46:04;;;;;;;46.58;44.10;;;;;;;;;;5067569;28;20429;-65
2023/10/22 06:48:30;;;;;;;46.35;44.00;;;;;;;;;;5072057;28;20033;-66
2023/10/22 06:50:55;;;;;;;44.47;42.20;;;;;;;;;;5071271;28;20052;-65
2023/10/22 06:53:21;;;;;;;42.38;40.22;;;;;;;;;;5068525;28;20330;-66
2023/10/22 06:55:46;;;;;;;42.55;40.35;;;;;;;;;;5067571;28;20445;-65
2023/10/22 06:58:12;;;;;;;43.65;41.38;;;;;;;;;;5066553;28;20040;-65
2023/10/22 07:00:37;;;;;;;39.38;37.38;;;;;;;;;;5070165;28;20109;-64
2023/10/22 07:03:03;;;;;;;39.85;37.72;;;;;;;;;;5071037;28;20064;-62
2023/10/22 07:05:29;;;;;;;39.30;37.30;;;;;;;;;;5068377;28;20063;-65
2023/10/22 07:07:55;;;;;;;38.88;36.88;;;;;;;;;;5068859;28;20445;-63
2023/10/22 07:10:20;;;;;;;38.67;36.67;;;;;;;;;;5069332;28;20050;-64
2023/10/22 07:12:45;;;;;;;36.97;34.80;;;;;;;;;;5068687;28;20049;-66
2023/10/22 07:15:12;;;;;;;37.13;35.22;;;;;;;;;;5053385;28;20067;-61
2023/10/22 07:17:38;;;;;;;37.60;35.50;;;;;;;;;;5064832;28;20033;-65
2023/10/22 07:20:06;;;;;;;35.58;33.70;;;;;;;;;;5064983;28;20059;-63
2023/10/22 07:22:31;;;;;;;38.28;36.28;;;;;;;;;;5062052;28;20036;-63
2023/10/22 07:24:57;;;;;;;39.42;37.38;;;;;;;;;;5069081;28;20529;-63
2023/10/22 07:27:22;;;;;;;39.13;37.03;;;;;;;;;;5066143;28;20488;-63
2023/10/22 07:29:48;;;;;;;37.65;35.72;;;;;;;;;;5063618;28;20028;-64
2023/10/22 07:32:14;;;;;;;40.80;38.70;;;;;;;;;;5060651;28;20063;-64
2023/10/22 07:34:39;;;;;;;38.90;36.90;;;;;;;;;;5065575;28;20032;-64
2023/10/22 07:37:05;;;;;;;41.55;39.45;;;;;;;;;;5068848;28;20033;-62
2023/10/22 07:39:32;;;;;;;45.28;42.65;;;;;;;;;;5065154;28;20029;-62
2023/10/22 07:41:58;;;;;;;41.80;39.60;;;;;;;;;;5067348;28;20063;-63
2023/10/22 07:44:23;;;;;;;43.95;41.60;;;;;;;;;;5067827;28;20055;-63
2023/10/22 07:46:49;;;;;;;48.15;45.55;;;;;;;;;;5067009;28;20410;-63
2023/10/22 07:49:15;;;;;;;44.95;42.65;;;;;;;;;;5067192;28;20047;-63
2023/10/22 07:51:42;;;;;;;40.42;38.25;;;;;;;;;;5065058;28;20119;-63
2023/10/22 07:54:07;;;;;;;38.42;36.42;;;;;;;;;;5065868;28;20562;-65
2023/10/22 07:56:34;;;;;;;40.38;38.17;;;;;;;;;;5066148;28;20109;-63
2023/10/22 07:59:00;;;;;;;43.53;41.33;;;;;;;;;;5066297;28;20114;-63
2023/10/22 08:01:25;;;;;;;38.47;36.30;;;;;;;;;;5049106;28;20889;-64
2023/10/22 08:03:51;;;;;;;37.50;35.30;;;;;;;;;;5065604;28;20037;-63
2023/10/22 08:06:17;;;;;;;37.72;34.78;;;;;;;;;;5066054;28;20032;-63
2023/10/22 08:08:42;;;;;;;42.80;40.50;;;;;;;;;;5064802;28;20046;-64
2023/10/22 08:11:08;;;;;;;41.90;39.78;;;;;;;;;;5065146;28;20039;-63
2023/10/22 08:13:33;;;;;;;36.72;34.83;;;;;;;;;;5067559;28;20028;-64
2023/10/22 08:16:05;;;;;;;35.85;33.92;;;;;;;;;;5068477;28;20089;-64
2023/10/22 08:18:31;;;;;;;37.03;34.92;;;;;;;;;;5070037;28;20398;-64
2023/10/22 08:21:02;;;;;;;29.50;27.80;;;;;;;;;;5069557;28;20029;-63
2023/10/22 08:23:28;;;;;;;;;;;;;;;;;;5066269;28;20056;-63
2023/10/22 08:25:53;;;;;;;22.10;20.90;;;;;;;;;;5068053;28;20430;-63
2023/10/22 08:28:19;;;;;;;23.60;22.30;;;;;;;;;;5066131;28;20033;-64
2023/10/22 08:30:46;;;;;;;24.35;23.00;;;;;;;;;;5063483;28;20515;-64
2023/10/22 08:33:12;;;;;;;28.27;26.77;;;;;;;;;;5064413;28;20043;-64
2023/10/22 08:35:38;;;;;;;25.02;23.65;;;;;;;;;;5064399;28;20039;-63
2023/10/22 08:38:03;;;;;;;23.15;21.52;;;;;;;;;;5050755;28;20031;-64
2023/10/22 08:40:29;;;;;;;27.10;25.70;;;;;;;;;;5064625;28;20044;-64
2023/10/22 08:42:56;;;;;;;27.92;26.42;;;;;;;;;;5066040;28;20470;-64
2023/10/22 08:45:22;;;;;;;28.60;26.52;;;;;;;;;;5064693;28;20029;-64
2023/10/22 08:47:48;;;;;;;23.33;21.92;;;;;;;;;;5063546;28;20029;-64
2023/10/22 08:50:16;;;;;;;21.15;20.05;;;;;;;;;;5065507;28;20066;-63
2023/10/22 08:52:41;;;;;;;22.05;20.85;;;;;;;;;;5063281;28;20028;-64
2023/10/22 08:55:07;;;;;;;21.13;19.83;;;;;;;;;;5064964;28;20024;-63
2023/10/22 08:57:35;;;;;;;23.67;22.20;;;;;;;;;;5065610;28;20032;-64
2023/10/22 09:00:00;;;;;;;21.95;20.67;;;;;;;;;;5066570;28;20033;-63
2023/10/22 09:02:27;;;;;;;22.95;21.75;;;;;;;;;;5064562;28;20044;-63
2023/10/22 09:04:53;;;;;;;23.63;22.38;;;;;;;;;;5065337;28;20032;-63
2023/10/22 09:07:19;;;;;;;23.17;21.98;;;;;;;;;;5049145;28;20143;-63
2023/10/22 09:09:44;;;;;;;21.85;20.55;;;;;;;;;;5065748;28;20260;-64
2023/10/22 09:12:13;;;;;;;26.15;24.75;;;;;;;;;;5063303;28;20407;-63
2023/10/22 09:14:42;;;;;;;24.58;23.27;;;;;;;;;;5068020;28;20042;-64
2023/10/22 09:17:18;;;;;;;21.65;20.45;;;;;;;;;;5065095;28;20040;-64
2023/10/22 09:19:47;;;;;;;23.05;21.70;;;;;;;;;;5066901;28;20226;-64
2023/10/22 09:22:26;;;;;;;24.67;23.33;;;;;;;;;;5062760;28;20037;-64
2023/10/22 09:24:55;;;;;;;22.98;21.70;;;;;;;;;;5065297;28;20420;-65
2023/10/22 09:27:27;;;;;;;23.50;22.20;;;;;;;;;;5065672;28;20338;-64
2023/10/22 09:29:58;;;;;;;22.55;21.35;;;;;;;;;;5066173;28;20043;-64
2023/10/22 09:32:24;;;;;;;21.95;20.75;;;;;;;;;;5062816;28;20114;-64
2023/10/22 09:34:49;;;;;;;21.05;19.92;;;;;;;;;;5063620;28;20631;-65
2023/10/22 09:37:15;;;;;;;22.27;21.08;;;;;;;;;;5062640;28;20029;-63
2023/10/22 09:39:45;;;;;;;21.77;20.58;;;;;;;;;;5066069;28;20040;-63
2023/10/22 09:42:13;;;;;;;22.48;21.27;;;;;;;;;;5063399;28;20066;-63
2023/10/22 09:44:46;;;;;;;22.73;21.52;;;;;;;;;;5065768;28;20481;-65
2023/10/22 09:47:19;;;;;;;23.95;22.65;;;;;;;;;;5062983;28;20082;-65
2023/10/22 09:49:50;;;;;;;24.30;23.00;;;;;;;;;;5067631;28;20036;-63
2023/10/22 09:52:17;;;;;;;23.58;22.27;;;;;;;;;;5064596;28;20033;-63
2023/10/22 09:54:48;;;;;;;24.25;22.95;;;;;;;;;;5063332;28;20128;-65
2023/10/22 09:57:15;;;;;;;24.17;22.85;;;;;;;;;;5065515;28;20036;-65
2023/10/22 09:59:41;;;;;;;24.27;22.83;;;;;;;;;;5063866;28;20116;-64
2023/10/22 10:02:16;;;;;;;22.25;21.05;;;;;;;;;;5063846;28;20537;-62
2023/10/22 10:04:43;;;;;;;22.80;21.60;;;;;;;;;;5064962;28;20024;-63
2023/10/22 10:07:09;;;;;;;25.95;24.25;;;;;;;;;;5063416;28;20234;-63
2023/10/22 10:09:35;;;;;;;26.20;24.40;;;;;;;;;;5064940;28;20040;-63
2023/10/22 10:12:05;;;;;;;25.23;23.63;;;;;;;;;;5071516;28;20039;-63
2023/10/22 10:14:36;;;;;;;24.65;23.25;;;;;;;;;;5067438;28;20040;-63
2023/10/22 10:17:02;;;;;;;24.55;23.23;;;;;;;;;;5064778;28;20423;-65
2023/10/22 10:19:27;;;;;;;24.20;22.90;;;;;;;;;;5063448;28;20047;-63
2023/10/22 10:21:53;;;;;;;24.75;23.35;;;;;;;;;;5066971;28;20033;-62
2023/10/22 10:24:23;;;;;;;24.88;23.33;;;;;;;;;;5067875;28;20032;-62
2023/10/22 10:27:12;;;;;;;23.63;22.38;;;;;;;;;;5068450;28;20158;-63
2023/10/22 10:29:38;;;;;;;23.33;22.10;;;;;;;;;;5071434;28;20044;-64
2023/10/22 10:32:13;;;;;;;23.55;22.30;;;;;;;;;;5068511;28;20069;-62
2023/10/22 10:34:40;;;;;;;23.55;22.33;;;;;;;;;;5067143;28;20056;-63
2023/10/22 10:37:16;;;;;;;25.85;24.45;;;;;;;;;;5069909;28;20024;-63
2023/10/22 10:39:46;;;;;;;28.10;26.60;;;;;;;;;;5070865;28;20669;-64
2023/10/22 10:42:32;;;;;;;25.75;24.35;;;;;;;;;;5067555;28;20033;-63
2023/10/22 10:44:58;;;;;;;23.25;21.95;;;;;;;;;;5064170;28;20036;-62
2023/10/22 10:47:29;;;;;;;32.40;30.42;;;;;;;;;;5068563;28;20410;-62
2023/10/22 10:50:07;;;;;;;35.38;33.45;;;;;;;;;;5069175;28;20115;-62
2023/10/22 10:52:38;;;;;;;32.17;30.50;;;;;;;;;;5064858;28;20654;-62
2023/10/22 10:55:27;;;;;;;38.70;35.35;;;;;;;;;;5066758;28;20064;-62
2023/10/22 10:57:54;;;;;;;35.92;34.00;;;;;;;;;;5066511;28;20044;-62
2023/10/22 11:00:28;;;;;;;37.38;35.08;;;;;;;;;;5067183;28;20036;-62
2023/10/22 11:02:56;;;;;;;43.10;40.72;;;;;;;;;;5065153;28;20640;-63
2023/10/22 11:05:37;;;;;;;42.22;39.67;;;;;;;;;;5068546;28;20664;-63
2023/10/22 11:08:04;;;;;;;43.42;41.22;;;;;;;;;;5066290;28;20123;-62
2023/10/22 11:10:30;;;;;;;44.65;42.35;;;;;;;;;;5067447;28;20044;-63
2023/10/22 11:13:02;;;;;;;52.50;49.85;;;;;;;;;;5069177;28;20032;-63
2023/10/22 11:15:32;;;;;;;51.45;48.85;;;;;;;;;;5065974;28;20670;-64
2023/10/22 11:18:05;;;;;;;46.38;43.83;;;;;;;;;;5067756;28;20454;-66
2023/10/22 11:20:31;;;;;;;45.60;43.17;;;;;;;;;;5065232;28;20098;-65
2023/10/22 11:22:57;;;;;;;43.92;41.72;;;;;;;;;;5068066;28;20036;-64
2023/10/22 11:25:23;;;;;;;54.78;52.00;;;;;;;;;;5068006;28;20051;-64
2023/10/22 11:27:49;;;;;;;53.72;51.03;;;;;;;;;;5067766;28;20029;-63
2023/10/22 11:30:33;;;;;;;54.95;52.15;;;;;;;;;;5066583;28;20055;-62
2023/10/22 11:32:58;;;;;;;53.65;50.85;;;;;;;;;;5066359;28;20035;-64
2023/10/22 11:35:30;;;;;;;46.20;43.80;;;;;;;;;;5062902;28;20040;-66
2023/10/22 11:37:57;;;;;;;44.47;42.17;;;;;;;;;;5066192;28;20071;-64
2023/10/22 11:40:31;;;;;;;42.30;39.00;;;;;;;;;;5069540;28;20071;-65
2023/10/22 11:43:00;;;;;;;38.42;36.38;;;;;;;;;;5067066;28;20040;-65
2023/10/22 11:45:30;;;;;;;43.67;41.38;;;;;;;;;;5065971;28;20060;-66
2023/10/22 11:48:18;;;;;;;42.30;40.10;;;;;;;;;;5068610;28;20031;-66
2023/10/22 11:50:48;;;;;;;34.92;33.13;;;;;;;;;;5063907;28;20032;-60
2023/10/22 11:53:14;;;;;;;29.40;27.90;;;;;;;;;;5068080;28;20028;-61
2023/10/22 11:55:40;;;;;;;41.90;39.75;;;;;;;;;;5069828;28;20120;-61
2023/10/22 11:58:24;;;;;;;41.78;39.67;;;;;;;;;;5062082;28;20103;-65
2023/10/22 12:00:50;;;;;;;50.53;47.75;;;;;;;;;;5067425;28;20086;-62
2023/10/22 12:03:16;;;;;;;46.40;44.00;;;;;;;;;;5065742;28;20048;-62
2023/10/22 12:05:42;;;;;;;53.97;51.20;;;;;;;;;;5064196;28;20104;-62
2023/10/22 12:08:08;;;;;;;51.53;48.90;;;;;;;;;;5065466;28;20028;-66
2023/10/22 12:10:33;;;;;;;52.97;49.97;;;;;;;;;;5062598;28;20066;-65
2023/10/22 12:12:59;;;;;;;53.00;49.90;;;;;;;;;;5066734;28;20109;-64
2023/10/22 12:15:25;;;;;;;58.33;55.42;;;;;;;;;;5063926;28;20091;-65
2023/10/22 12:17:51;;;;;;;48.83;46.13;;;;;;;;;;5067390;28;20025;-62
2023/10/22 12:20:17;;;;;;;47.25;44.78;;;;;;;;;;5068185;28;20127;-62
2023/10/22 12:22:42;;;;;;;55.75;52.35;;;;;;;;;;5063588;28;20783;-64
2023/10/22 12:25:08;;;;;;;51.90;49.15;;;;;;;;;;5066654;28;20029;-61
2023/10/22 12:27:33;;;;;;;47.58;45.17;;;;;;;;;;5067316;28;20032;-62
2023/10/22 12:30:00;;;;;;;55.83;53.00;;;;;;;;;;5069285;28;20527;-65
2023/10/22 12:32:25;;;;;;;58.42;55.42;;;;;;;;;;5066294;28;20369;-62
2023/10/22 12:34:51;;;;;;;57.80;54.90;;;;;;;;;;5066882;28;20055;-62
2023/10/22 12:37:16;;;;;;;52.35;49.70;;;;;;;;;;5063307;28;20040;-62
2023/10/22 12:39:42;;;;;;;51.13;48.47;;;;;;;;;;5062390;28;20041;-61
2023/10/22 12:42:08;;;;;;;48.60;46.15;;;;;;;;;;5066545;28;20430;-61
2023/10/22 12:44:34;;;;;;;50.90;48.33;;;;;;;;;;5063345;28;20123;-62
2023/10/22 12:46:59;;;;;;;50.53;47.92;;;;;;;;;;5063697;28;20127;-64
2023/10/22 12:49:25;;;;;;;50.53;48.00;;;;;;;;;;5064044;28;20032;-62
2023/10/22 12:51:50;;;;;;;58.70;55.75;;;;;;;;;;5064627;28;20060;-62
2023/10/22 12:54:15;;;;;;;40.58;38.47;;;;;;;;;;5061039;28;20119;-63
2023/10/22 12:56:41;;;;;;;46.53;44.13;;;;;;;;;;5064299;28;20044;-63
2023/10/22 12:59:06;;;;;;;44.65;42.38;;;;;;;;;;5066293;28;20105;-63
2023/10/22 13:01:32;;;;;;;38.47;36.47;;;;;;;;;;5065499;28;20429;-63
2023/10/22 13:03:57;;;;;;;40.72;38.63;;;;;;;;;;5066015;28;20028;-62
2023/10/22 13:06:23;;;;;;;44.75;42.47;;;;;;;;;;5064325;28;20055;-64
2023/10/22 13:08:48;;;;;;;45.33;42.95;;;;;;;;;;5064322;28;20037;-63
2023/10/22 13:11:17;;;;;;;50.10;47.58;;;;;;;;;;5065462;28;20032;-64
2023/10/22 13:13:44;;;;;;;53.38;50.70;;;;;;;;;;5066263;28;20029;-66
2023/10/22 13:16:09;;;;;;;52.95;50.30;;;;;;;;;;5058373;28;20034;-66
2023/10/22 13:18:35;;;;;;;55.05;52.28;;;;;;;;;;5061576;28;20037;-65
2023/10/22 13:21:00;;;;;;;53.70;51.00;;;;;;;;;;5065410;28;20540;-65
2023/10/22 13:23:26;;;;;;;52.05;49.35;;;;;;;;;;5061650;28;20480;-66
2023/10/22 13:25:51;;;;;;;55.00;52.25;;;;;;;;;;5065827;28;20032;-66
2023/10/22 13:28:16;;;;;;;49.67;47.17;;;;;;;;;;5064729;28;20147;-63
2023/10/22 13:30:43;;;;;;;54.72;51.97;;;;;;;;;;5063219;28;20368;-61
2023/10/22 13:33:09;;;;;;;53.00;50.33;;;;;;;;;;5063314;28;20089;-65
2023/10/22 13:35:34;;;;;;;56.88;53.97;;;;;;;;;;5063653;28;20040;-65
2023/10/22 13:38:01;;;;;;;55.45;52.53;;;;;;;;;;5064226;28;20036;-64
2023/10/22 13:40:26;;;;;;;53.80;50.97;;;;;;;;;;5064262;28;20039;-63
2023/10/22 13:42:51;;;;;;;56.05;53.20;;;;;;;;;;5065562;28;20410;-64
2023/10/22 13:45:17;;;;;;;54.75;52.00;;;;;;;;;;5064139;28;20064;-64
2023/10/22 13:47:44;;;;;;;55.83;53.03;;;;;;;;;;5064950;28;20036;-63
2023/10/22 13:50:10;;;;;;;55.22;52.45;;;;;;;;;;5067160;28;20041;-63
2023/10/22 13:52:36;;;;;;;61.50;58.40;;;;;;;;;;5066910;28;20021;-65
2023/10/22 13:55:01;;;;;;;60.03;56.60;;;;;;;;;;5065462;28;20104;-63
2023/10/22 13:57:27;;;;;;;60.92;57.88;;;;;;;;;;5061161;28;20048;-63
2023/10/22 13:59:53;;;;;;;61.17;57.83;;;;;;;;;;5063674;28;20036;-63
2023/10/22 14:02:19;;;;;;;62.03;58.92;;;;;;;;;;5062540;28;20036;-66
2023/10/22 14:04:45;;;;;;;62.65;59.47;;;;;;;;;;5064433;28;20032;-65
2023/10/22 14:07:14;;;;;;;56.03;52.92;;;;;;;;;;5062611;28;20380;-65
2023/10/22 14:09:39;;;;;;;54.08;51.35;;;;;;;;;;5062719;28;20032;-64
2023/10/22 14:12:05;;;;;;;58.13;54.72;;;;;;;;;;5065314;28;20381;-64
2023/10/22 14:14:30;;;;;;;68.13;64.70;;;;;;;;;;5062520;28;20150;-61
2023/10/22 14:16:56;;;;;;;59.30;56.28;;;;;;;;;;5060493;28;20515;-61